Time;durP1;ratioP1;P1;durP2;ratioP2;P2;SDS_P1;SDS_P2;PMS_P1;PMS_P2;Temp;Humidity;BMP_temperature;BMP_pressure;BME280_temperature;BME280_humidity;BME280_pressure;Samples;Min_cycle;Max_cycle;Signal;HPM_P1;HPM_P2
2023/04/10 00:00:37;;;;;;;35.17;23.58;;;;;;;7.17;100.00;102256.63;4934989;28;20059;-77
2023/04/10 00:03:04;;;;;;;36.15;24.88;;;;;;;7.15;100.00;102251.31;4945977;28;20044;-78
2023/04/10 00:05:32;;;;;;;37.97;25.83;;;;;;;7.14;100.00;102256.47;4953574;28;20058;-77
2023/04/10 00:08:00;;;;;;;37.88;25.65;;;;;;;7.12;100.00;102259.03;4963235;28;20069;-78
2023/04/10 00:10:29;;;;;;;34.90;24.20;;;;;;;7.11;100.00;102253.75;4989992;28;20043;-78
2023/04/10 00:12:59;;;;;;;38.45;26.33;;;;;;;7.09;100.00;102251.06;4989870;28;20474;-77
2023/04/10 00:15:27;;;;;;;36.95;25.50;;;;;;;7.09;100.00;102252.78;4917505;28;20090;-77
2023/04/10 00:17:55;;;;;;;37.30;25.77;;;;;;;7.06;100.00;102258.78;4963842;28;20050;-78
2023/04/10 00:20:22;;;;;;;39.65;26.15;;;;;;;7.03;100.00;102251.72;4970297;28;20078;-77
2023/04/10 00:22:50;;;;;;;39.97;27.27;;;;;;;6.98;100.00;102261.13;4968693;28;20066;-77
2023/04/10 00:25:17;;;;;;;41.85;28.25;;;;;;;6.93;100.00;102246.03;4966725;28;20061;-77
2023/04/10 00:27:45;;;;;;;43.22;27.88;;;;;;;6.90;100.00;102249.44;4952240;28;20055;-77
2023/04/10 00:30:12;;;;;;;36.47;25.13;;;;;;;6.86;100.00;102244.00;4912806;28;22035;-77
2023/04/10 00:32:40;;;;;;;46.92;29.23;;;;;;;6.81;100.00;102246.44;4970007;28;20082;-77
2023/04/10 00:35:08;;;;;;;43.55;28.13;;;;;;;6.77;100.00;102245.41;4953083;28;20050;-77
2023/04/10 00:37:36;;;;;;;42.55;27.55;;;;;;;6.73;100.00;102240.88;4958041;28;20058;-77
2023/04/10 00:40:05;;;;;;;43.20;28.65;;;;;;;6.70;100.00;102242.47;4974326;28;20055;-77
2023/04/10 00:42:32;;;;;;;45.65;28.58;;;;;;;6.66;100.00;102237.94;4972134;28;20047;-77
2023/04/10 00:45:01;;;;;;;45.75;28.33;;;;;;;6.62;100.00;102229.06;4941180;28;20055;-77
2023/04/10 00:47:28;;;;;;;40.95;27.63;;;;;;;6.57;100.00;102234.09;4960845;28;20054;-77
2023/04/10 00:49:56;;;;;;;41.80;28.40;;;;;;;6.55;100.00;102227.91;4929742;28;20051;-77
2023/04/10 00:52:25;;;;;;;38.25;26.45;;;;;;;6.52;100.00;102221.63;4962141;28;20517;-77
2023/04/10 00:54:52;;;;;;;42.05;27.83;;;;;;;6.52;100.00;102222.56;4955214;28;20051;-77
2023/04/10 00:57:20;;;;;;;41.72;26.75;;;;;;;6.51;100.00;102220.75;4948856;28;20062;-76
2023/04/10 00:59:47;;;;;;;39.95;28.08;;;;;;;6.49;100.00;102216.28;4929609;28;20057;-77
2023/04/10 01:02:15;;;;;;;41.90;28.73;;;;;;;6.49;100.00;102218.91;4917303;28;20062;-77
2023/04/10 01:04:43;;;;;;;41.20;28.13;;;;;;;6.45;100.00;102210.03;4949523;28;20047;-78
2023/04/10 01:07:19;;;;;;;43.08;28.25;;;;;;;6.43;100.00;102195.97;4956827;28;20077;-78
2023/04/10 01:10:02;;;;;;;41.50;27.85;;;;;;;6.39;100.00;102189.72;4968076;28;20051;-78
2023/04/10 01:12:59;;;;;;;45.03;29.73;;;;;;;6.36;100.00;102191.31;4959955;28;20047;-77
2023/04/10 01:15:29;;;;;;;42.60;28.55;;;;;;;6.35;100.00;102195.66;4945471;28;20036;-78
2023/04/10 01:18:19;;;;;;;41.83;28.07;;;;;;;6.33;100.00;102196.41;4912023;28;20506;-77
2023/04/10 01:20:47;;;;;;;42.20;28.57;;;;;;;6.31;100.00;102183.25;4947209;28;20298;-78
2023/04/10 01:23:36;;;;;;;44.15;29.77;;;;;;;6.29;100.00;102176.16;4942749;29;20062;-77
2023/04/10 01:26:06;;;;;;;41.40;27.15;;;;;;;6.28;100.00;102180.53;4944107;28;20051;-77
2023/04/10 01:29:00;;;;;;;48.17;30.20;;;;;;;6.28;100.00;102174.41;4939847;29;20051;-77
2023/04/10 01:31:33;;;;;;;43.92;29.17;;;;;;;6.29;100.00;102173.56;4959468;28;20074;-78
2023/04/10 01:34:08;;;;;;;40.97;28.27;;;;;;;6.25;100.00;102168.19;4902976;28;20052;-77
2023/04/10 01:36:54;;;;;;;44.80;28.75;;;;;;;6.24;100.00;102178.63;4967417;28;20074;-77
2023/04/10 01:39:22;;;;;;;45.97;29.98;;;;;;;6.22;100.00;102173.31;4963642;28;20046;-77
2023/04/10 01:41:52;;;;;;;41.08;27.30;;;;;;;6.23;100.00;102161.09;4956751;28;20059;-77
2023/04/10 01:44:29;;;;;;;43.38;28.50;;;;;;;6.22;100.00;102160.22;4950054;28;20051;-77
2023/04/10 01:46:57;;;;;;;41.80;29.00;;;;;;;6.19;100.00;102157.47;4927490;28;20059;-77
2023/04/10 01:49:27;;;;;;;42.28;28.88;;;;;;;6.17;100.00;102153.88;4942569;28;20051;-77
2023/04/10 01:52:02;;;;;;;45.85;30.00;;;;;;;6.15;100.00;102152.03;4934464;28;20044;-77
2023/04/10 01:54:32;;;;;;;47.10;29.48;;;;;;;6.16;100.00;102148.56;4940961;28;20046;-77
2023/04/10 01:57:02;;;;;;;46.35;30.33;;;;;;;6.15;100.00;102158.16;4970299;28;20047;-77
2023/04/10 01:59:38;;;;;;;49.13;30.75;;;;;;;6.13;100.00;102146.75;4938876;28;20066;-77
2023/04/10 02:02:06;;;;;;;40.90;27.90;;;;;;;6.13;100.00;102145.84;4948044;28;20058;-77
2023/04/10 02:04:34;;;;;;;44.35;29.88;;;;;;;6.11;100.00;102140.53;4906240;28;20048;-78
2023/04/10 02:07:11;;;;;;;45.20;29.73;;;;;;;6.10;100.00;102143.09;4946902;28;20059;-77
2023/04/10 02:09:53;;;;;;;42.17;29.02;;;;;;;6.08;100.00;102143.03;4949572;28;20047;-77
2023/04/10 02:12:27;;;;;;;42.25;28.75;;;;;;;6.08;100.00;102139.53;4947586;28;20051;-77
2023/04/10 02:15:00;;;;;;;44.05;29.02;;;;;;;6.06;100.00;102131.59;4947886;28;20418;-77
2023/04/10 02:17:32;;;;;;;43.63;29.42;;;;;;;6.07;100.00;102132.47;4949127;29;20066;-77
2023/04/10 02:20:03;;;;;;;43.90;29.80;;;;;;;6.06;100.00;102121.13;4908751;28;20043;-77
2023/04/10 02:22:31;;;;;;;40.30;28.33;;;;;;;6.03;100.00;102134.06;4938966;28;20063;-77
2023/04/10 02:24:59;;;;;;;42.42;29.40;;;;;;;6.01;100.00;102128.81;4947607;28;20059;-77
2023/04/10 02:27:31;;;;;;;39.13;28.25;;;;;;;5.98;100.00;102123.44;4948626;28;20051;-76
2023/04/10 02:29:59;;;;;;;41.25;28.45;;;;;;;5.96;100.00;102121.59;4963350;28;20055;-77
2023/04/10 02:32:27;;;;;;;40.92;29.50;;;;;;;5.95;100.00;102118.06;4945588;28;20060;-77
2023/04/10 02:34:55;;;;;;;42.15;28.95;;;;;;;5.95;100.00;102118.06;4903649;28;20051;-77
2023/04/10 02:37:23;;;;;;;40.15;26.65;;;;;;;5.95;100.00;102117.13;4948337;28;20054;-78
2023/04/10 02:39:53;;;;;;;41.28;27.92;;;;;;;5.93;100.00;102117.06;4940732;28;20055;-78
2023/04/10 02:42:23;;;;;;;38.60;27.10;;;;;;;5.92;100.00;102102.22;4959586;28;20051;-78
2023/04/10 02:44:52;;;;;;;41.28;27.90;;;;;;;5.91;100.00;102110.00;4951569;28;20059;-78
2023/04/10 02:47:20;;;;;;;37.47;25.13;;;;;;;5.88;100.00;102105.53;4928714;29;20095;-77
2023/04/10 02:49:48;;;;;;;42.45;27.38;;;;;;;5.87;100.00;102103.72;4955866;28;20051;-78
2023/04/10 02:52:16;;;;;;;40.60;26.52;;;;;;;5.86;100.00;102100.22;4913240;28;20084;-78
2023/04/10 02:54:45;;;;;;;41.83;26.05;;;;;;;5.86;100.00;102091.50;4965724;28;20418;-77
2023/04/10 02:57:12;;;;;;;42.45;28.02;;;;;;;5.84;100.00;102096.66;4945186;28;20755;-78
2023/04/10 02:59:40;;;;;;;38.95;27.80;;;;;;;5.81;100.00;102093.91;4947508;28;20046;-77
2023/04/10 03:02:07;;;;;;;41.22;28.48;;;;;;;5.78;100.00;102095.50;4950763;28;20042;-77
2023/04/10 03:04:36;;;;;;;38.53;26.73;;;;;;;5.77;100.00;102086.75;4940003;28;20530;-77
2023/04/10 03:07:04;;;;;;;39.40;25.92;;;;;;;5.77;100.00;102098.94;4896896;28;20078;-78
2023/04/10 03:09:32;;;;;;;38.10;24.58;;;;;;;5.76;100.00;102094.53;4955643;28;20050;-78
2023/04/10 03:12:00;;;;;;;47.63;28.42;;;;;;;5.74;100.00;102083.09;4953182;28;20050;-78
2023/04/10 03:14:28;;;;;;;34.35;25.73;;;;;;;5.74;100.00;102088.34;4946423;29;20074;-78
2023/04/10 03:16:55;;;;;;;39.55;26.40;;;;;;;5.73;100.00;102086.53;4946808;29;20063;-78
2023/04/10 03:19:25;;;;;;;32.25;24.42;;;;;;;5.75;100.00;102087.53;4956157;28;20058;-78
2023/04/10 03:21:53;;;;;;;42.92;27.17;;;;;;;5.72;100.00;102093.50;4913136;28;20047;-78
2023/04/10 03:24:21;;;;;;;39.53;26.92;;;;;;;5.71;100.00;102096.97;4949982;28;20042;-78
2023/04/10 03:26:48;;;;;;;36.47;25.05;;;;;;;5.72;100.00;102087.38;4961610;28;20047;-78
2023/04/10 03:29:17;;;;;;;40.33;26.17;;;;;;;5.72;100.00;102088.28;4953892;28;20710;-78
2023/04/10 03:31:45;;;;;;;39.28;24.90;;;;;;;5.70;100.00;102079.47;4956089;28;20054;-78
2023/04/10 03:34:12;;;;;;;38.33;24.98;;;;;;;5.71;100.00;102080.34;4960114;28;20414;-78
2023/04/10 03:36:40;;;;;;;35.08;25.02;;;;;;;5.69;100.00;102080.31;4911595;28;20434;-78
2023/04/10 03:39:08;;;;;;;40.70;26.38;;;;;;;5.69;100.00;102084.63;4937172;28;20051;-78
2023/04/10 03:41:35;;;;;;;37.38;25.95;;;;;;;5.66;100.00;102088.00;4981824;28;20058;-78
2023/04/10 03:44:03;;;;;;;45.03;26.70;;;;;;;5.65;100.00;102080.97;4960199;28;20051;-78
2023/04/10 03:46:30;;;;;;;38.55;25.20;;;;;;;5.64;100.00;102079.22;4964054;28;20051;-77
2023/04/10 03:48:59;;;;;;;36.83;25.60;;;;;;;5.65;100.00;102078.38;4952741;28;20371;-77
2023/04/10 03:51:28;;;;;;;39.95;27.80;;;;;;;5.64;100.00;102074.88;4916483;28;20073;-77
2023/04/10 03:53:55;;;;;;;40.28;26.50;;;;;;;5.65;100.00;102075.75;4902644;29;20509;-76
2023/04/10 03:56:24;;;;;;;36.58;24.92;;;;;;;5.63;100.00;102077.41;4963223;28;20058;-78
2023/04/10 03:58:51;;;;;;;44.03;27.95;;;;;;;5.64;100.00;102071.38;4922437;28;20055;-78
2023/04/10 04:01:19;;;;;;;39.22;27.08;;;;;;;5.62;100.00;102071.28;4949097;28;20063;-77
2023/04/10 04:04:01;;;;;;;40.58;27.05;;;;;;;5.62;100.00;102065.19;4944873;28;20064;-78
2023/04/10 04:06:47;;;;;;;37.47;25.67;;;;;;;5.61;100.00;102068.59;4922762;28;20051;-78
2023/04/10 04:09:23;;;;;;;38.90;25.77;;;;;;;5.61;100.00;102061.69;4939125;28;20059;-78
2023/04/10 04:12:17;;;;;;;39.53;25.63;;;;;;;5.60;100.00;102059.88;4956932;28;20054;-78
2023/04/10 04:14:50;;;;;;;41.25;27.52;;;;;;;5.60;100.00;102045.91;4963589;28;20059;-78
2023/04/10 04:17:18;;;;;;;38.90;26.35;;;;;;;5.59;100.00;102050.22;4947912;28;20055;-78
2023/04/10 04:20:06;;;;;;;37.63;25.10;;;;;;;5.58;100.00;102032.78;4949828;28;20623;-78
2023/04/10 04:22:42;;;;;;;38.63;26.17;;;;;;;5.58;100.00;102038.00;4933705;28;20051;-78
2023/04/10 04:25:20;;;;;;;42.80;26.75;;;;;;;5.59;100.00;102038.88;4951615;28;20440;-77
2023/04/10 04:28:00;;;;;;;40.23;26.20;;;;;;;5.58;100.00;102038.00;4959710;28;20062;-78
2023/04/10 04:30:50;;;;;;;39.05;26.00;;;;;;;5.58;100.00;102024.94;4971724;28;20063;-78
2023/04/10 04:33:45;;;;;;;42.22;26.90;;;;;;;5.58;100.00;102024.94;4953961;28;20052;-78
2023/04/10 04:36:31;;;;;;;37.45;27.90;;;;;;;5.59;100.00;102023.19;4948257;28;20151;-77
2023/04/10 04:39:10;;;;;;;41.80;27.67;;;;;;;5.58;100.00;102010.97;4908246;28;20059;-78
2023/04/10 04:41:56;;;;;;;39.53;25.65;;;;;;;5.58;100.00;102011.84;4968930;28;20468;-78
2023/04/10 04:44:42;;;;;;;38.08;25.10;;;;;;;5.59;100.00;102012.75;4956434;28;20050;-78
2023/04/10 04:47:26;;;;;;;39.28;26.10;;;;;;;5.60;100.00;102012.81;4940458;28;20051;-78
2023/04/10 04:50:26;;;;;;;40.92;25.73;;;;;;;5.62;100.00;102007.66;4961255;28;20103;-78
2023/04/10 04:53:03;;;;;;;37.72;24.77;;;;;;;5.62;100.00;102003.31;4913353;28;20039;-78
2023/04/10 04:56:03;;;;;;;39.08;26.63;;;;;;;5.63;100.00;101998.97;4888505;28;20423;-78
2023/04/10 04:58:46;;;;;;;39.15;26.33;;;;;;;5.64;100.00;101995.53;4970026;28;20044;-78
2023/04/10 05:01:27;;;;;;;;;;;;;;;5.65;100.00;101992.97;4958218;28;20035;-78
2023/04/10 05:04:13;;;;;;;38.78;25.90;;;;;;;5.65;100.00;101987.75;4965531;28;19922;-78
2023/04/10 05:06:55;;;;;;;39.72;26.48;;;;;;;5.66;100.00;101988.63;4932715;28;20051;-78
2023/04/10 05:09:41;;;;;;;42.13;27.02;;;;;;;5.68;100.00;101980.88;4923524;28;20426;-77
2023/04/10 05:12:27;;;;;;;39.08;25.52;;;;;;;5.68;100.00;101994.81;4943390;28;20070;-78
2023/04/10 05:15:19;;;;;;;41.55;26.88;;;;;;;5.70;100.00;101995.78;4940392;29;20055;-77
2023/04/10 05:18:10;;;;;;;38.90;25.50;;;;;;;5.73;100.00;101989.75;4948247;28;20532;-78
2023/04/10 05:20:54;;;;;;;38.20;26.45;;;;;;;5.76;100.00;101990.78;4952517;28;20417;-78
2023/04/10 05:23:42;;;;;;;40.03;26.95;;;;;;;5.81;100.00;101981.41;4953513;28;20426;-78
2023/04/10 05:26:28;;;;;;;37.55;25.60;;;;;;;5.86;100.00;101984.25;4912896;28;20609;-78
2023/04/10 05:29:09;;;;;;;38.88;27.45;;;;;;;5.92;100.00;101992.31;4956270;28;20046;-78
2023/04/10 05:32:07;;;;;;;37.40;25.75;;;;;;;5.97;100.00;101995.16;4961060;28;20057;-79
2023/04/10 05:35:04;;;;;;;34.83;25.75;;;;;;;6.03;100.00;101992.78;4950188;28;20533;-78
2023/04/10 05:37:43;;;;;;;38.75;25.38;;;;;;;6.08;100.00;101993.84;4971547;28;20055;-78
2023/04/10 05:40:33;;;;;;;28.50;20.23;;;;;;;6.15;100.00;102000.25;4927298;28;20518;-78
2023/04/10 05:43:26;;;;;;;38.47;25.10;;;;;;;6.20;100.00;101999.59;4963526;28;20067;-77
2023/04/10 05:46:26;;;;;;;35.47;25.27;;;;;;;6.25;100.00;102000.63;4950890;28;20394;-78
2023/04/10 05:49:25;;;;;;;38.97;26.75;;;;;;;6.34;100.00;101999.25;4959434;28;20510;-78
2023/04/10 05:52:03;;;;;;;39.28;26.58;;;;;;;6.40;100.00;102002.09;4951415;28;20057;-78
2023/04/10 05:54:31;;;;;;;38.80;25.25;;;;;;;6.45;100.00;102000.53;4969326;28;20054;-78
2023/04/10 05:57:17;;;;;;;40.38;26.75;;;;;;;6.53;100.00;101996.47;4906000;28;20051;-79
2023/04/10 05:59:44;;;;;;;39.70;26.90;;;;;;;6.59;100.00;101994.09;4929376;28;20066;-77
2023/04/10 06:02:46;;;;;;;37.45;25.77;;;;;;;6.69;100.00;101989.19;4956075;28;20058;-77
2023/04/10 06:05:22;;;;;;;39.95;25.80;;;;;;;6.76;100.00;101989.47;4947261;28;20058;-78
2023/04/10 06:07:55;;;;;;;39.97;26.38;;;;;;;6.84;100.00;101981.91;4966193;28;20521;-78
2023/04/10 06:10:28;;;;;;;42.70;27.30;;;;;;;6.92;100.00;101984.78;4944201;28;20475;-77
2023/04/10 06:12:56;;;;;;;39.20;26.98;;;;;;;7.01;100.00;101979.88;4853880;28;20048;-77
2023/04/10 06:15:25;;;;;;;40.60;26.20;;;;;;;7.08;100.00;101967.91;4927728;29;20332;-77
2023/04/10 06:17:52;;;;;;;38.78;25.45;;;;;;;7.14;100.00;101969.00;4950732;28;20518;-78
2023/04/10 06:20:20;;;;;;;40.58;27.52;;;;;;;7.20;100.00;101963.09;4964937;28;20727;-77
2023/04/10 06:22:50;;;;;;;37.22;25.85;;;;;;;7.27;100.00;101956.34;4966866;28;20050;-77
2023/04/10 06:25:18;;;;;;;39.60;27.20;;;;;;;7.34;100.00;101961.84;4980850;28;20051;-77
2023/04/10 06:27:45;;;;;;;40.33;26.30;;;;;;;7.44;100.00;101943.81;4901203;28;20051;-77
2023/04/10 06:30:13;;;;;;;37.05;25.75;;;;;;;7.54;100.00;101941.53;4933230;28;20046;-77
2023/04/10 06:32:40;;;;;;;35.50;25.70;;;;;;;7.69;100.00;101948.13;4952994;28;20050;-77
2023/04/10 06:35:09;;;;;;;35.90;24.52;;;;;;;7.83;100.00;101940.72;4944928;28;20549;-77
2023/04/10 06:37:36;;;;;;;37.42;26.30;;;;;;;7.97;100.00;101937.66;4937865;28;20047;-77
2023/04/10 06:40:09;;;;;;;39.58;25.83;;;;;;;8.16;100.00;101936.47;4959021;28;20047;-77
2023/04/10 06:42:37;;;;;;;38.95;25.88;;;;;;;8.38;100.00;101942.41;4907004;28;20050;-77
2023/04/10 06:45:27;;;;;;;39.03;26.90;;;;;;;8.65;100.00;101944.09;4942197;29;20047;-77
2023/04/10 06:47:55;;;;;;;38.35;25.70;;;;;;;8.85;100.00;101945.53;4980986;28;20051;-77
2023/04/10 06:50:22;;;;;;;39.88;27.00;;;;;;;9.03;100.00;101944.25;4972601;28;20039;-77
2023/04/10 06:52:51;;;;;;;38.38;27.00;;;;;;;9.16;100.00;101933.22;4944940;28;20054;-77
2023/04/10 06:55:19;;;;;;;35.45;26.10;;;;;;;9.27;100.00;101930.88;4953079;28;20054;-77
2023/04/10 06:57:46;;;;;;;37.88;27.05;;;;;;;9.36;100.00;101928.47;4915809;28;20055;-77
2023/04/10 07:00:14;;;;;;;36.13;26.25;;;;;;;9.42;100.00;101935.63;4907920;29;20453;-77
2023/04/10 07:02:41;;;;;;;38.55;24.80;;;;;;;9.47;100.00;101931.34;4947507;28;20401;-77
2023/04/10 07:05:09;;;;;;;40.17;26.55;;;;;;;9.50;100.00;101923.56;4932546;28;20035;-77
2023/04/10 07:07:36;;;;;;;36.58;25.33;;;;;;;9.51;100.00;101920.09;4946870;28;20418;-77
2023/04/10 07:10:05;;;;;;;38.05;25.98;;;;;;;9.56;100.00;101916.72;4919504;29;20046;-77
2023/04/10 07:12:32;;;;;;;35.33;25.35;;;;;;;9.63;100.00;101909.84;4939295;29;20058;-77
2023/04/10 07:15:00;;;;;;;35.47;25.67;;;;;;;9.67;100.00;101914.31;4872139;28;20082;-77
2023/04/10 07:17:27;;;;;;;36.78;26.27;;;;;;;9.74;100.00;101902.22;4967475;28;20039;-76
2023/04/10 07:19:54;;;;;;;36.13;25.35;;;;;;;9.92;100.00;101894.75;4943902;28;20051;-76
2023/04/10 07:22:22;;;;;;;36.28;25.30;;;;;;;10.10;100.00;101896.00;4939718;28;20059;-77
2023/04/10 07:24:49;;;;;;;36.78;24.05;;;;;;;10.23;100.00;101897.16;4955695;28;20055;-77
2023/04/10 07:27:16;;;;;;;37.08;25.60;;;;;;;10.31;100.00;101890.34;4937850;28;20047;-77
2023/04/10 07:29:44;;;;;;;34.50;23.92;;;;;;;10.32;100.00;101890.38;4913863;28;20482;-76
2023/04/10 07:32:11;;;;;;;35.42;25.60;;;;;;;10.30;100.00;101888.50;4944085;28;20050;-76
2023/04/10 07:34:41;;;;;;;31.88;23.90;;;;;;;10.25;100.00;101880.53;4924910;28;20054;-76
2023/04/10 07:37:08;;;;;;;33.35;23.80;;;;;;;10.22;100.00;101879.56;4969154;28;20062;-77
2023/04/10 07:39:36;;;;;;;34.50;23.58;;;;;;;10.20;100.00;101874.25;4960864;28;20051;-76
2023/04/10 07:42:03;;;;;;;37.60;24.40;;;;;;;10.23;100.00;101879.59;4940739;28;20062;-77
2023/04/10 07:44:30;;;;;;;33.47;23.42;;;;;;;10.27;100.00;101865.63;4900914;28;20051;-77
2023/04/10 07:46:58;;;;;;;32.47;23.98;;;;;;;10.42;100.00;101861.59;4939153;28;20058;-76
2023/04/10 07:49:26;;;;;;;32.40;22.73;;;;;;;10.58;100.00;101844.31;4956023;28;20050;-76
2023/04/10 07:51:53;;;;;;;34.50;23.27;;;;;;;10.75;100.00;101852.53;4972308;28;20044;-76
2023/04/10 07:54:20;;;;;;;30.48;21.17;;;;;;;10.93;100.00;101832.66;4938787;28;20491;-76
2023/04/10 07:56:51;;;;;;;31.40;23.02;;;;;;;11.11;100.00;101831.19;4936393;28;20051;-76
2023/04/10 07:59:18;;;;;;;33.03;21.90;;;;;;;11.25;100.00;101820.88;4930810;28;20051;-78
2023/04/10 08:01:46;;;;;;;32.30;22.90;;;;;;;11.34;100.00;101817.47;4912435;28;20051;-77
2023/04/10 08:04:14;;;;;;;29.27;20.25;;;;;;;11.42;100.00;101816.75;4968913;28;20058;-77
2023/04/10 08:06:41;;;;;;;30.25;21.10;;;;;;;11.49;100.00;101808.06;4958205;28;20557;-77
2023/04/10 08:09:09;;;;;;;27.50;20.88;;;;;;;11.59;100.00;101809.09;4975371;28;20069;-76
2023/04/10 08:11:36;;;;;;;28.88;20.60;;;;;;;11.74;100.00;101804.84;4968969;28;20054;-77
2023/04/10 08:14:06;;;;;;;32.80;22.05;;;;;;;11.90;100.00;101796.31;4942831;28;20415;-77
2023/04/10 08:16:35;;;;;;;27.25;20.48;;;;;;;12.05;100.00;101793.88;4891284;28;20054;-78
2023/04/10 08:19:02;;;;;;;30.13;21.55;;;;;;;12.23;100.00;101789.66;4952100;28;20054;-77
2023/04/10 08:21:30;;;;;;;30.00;21.92;;;;;;;12.38;100.00;101787.22;4967924;28;20413;-77
2023/04/10 08:24:01;;;;;;;26.35;20.25;;;;;;;12.61;100.00;101789.22;4954054;28;20039;-77
2023/04/10 08:26:29;;;;;;;26.17;19.58;;;;;;;12.87;100.00;101771.81;4965824;28;20500;-78
2023/04/10 08:28:58;;;;;;;28.27;19.92;;;;;;;13.06;100.00;101766.66;4918547;28;20069;-78
2023/04/10 08:31:27;;;;;;;25.33;19.23;;;;;;;13.17;100.00;101759.66;4906825;28;20052;-78
2023/04/10 08:33:55;;;;;;;26.65;19.02;;;;;;;13.29;100.00;101753.59;4935909;28;20039;-78
2023/04/10 08:36:23;;;;;;;23.42;17.75;;;;;;;13.40;98.01;101753.69;4952491;28;20051;-78
2023/04/10 08:38:50;;;;;;;24.48;17.83;;;;;;;13.43;94.91;101757.22;4941478;28;20470;-77
2023/04/10 08:41:18;;;;;;;20.05;15.80;;;;;;;13.43;93.50;101751.94;4962203;28;20059;-77
2023/04/10 08:43:46;;;;;;;21.92;16.15;;;;;;;13.40;92.85;101751.94;4939986;28;20055;-77
2023/04/10 08:46:13;;;;;;;20.42;16.13;;;;;;;13.33;92.13;101752.78;4894794;28;20055;-77
2023/04/10 08:48:52;;;;;;;23.05;16.63;;;;;;;13.31;91.09;101746.59;4925550;29;20058;-77
2023/04/10 08:51:21;;;;;;;21.05;15.20;;;;;;;13.29;90.25;101757.97;4934812;29;20051;-77
2023/04/10 08:54:04;;;;;;;22.80;15.43;;;;;;;13.44;89.04;101740.47;4959175;28;20051;-77
2023/04/10 08:56:33;;;;;;;19.15;14.70;;;;;;;13.63;89.62;101722.94;4927831;28;20078;-77
2023/04/10 08:59:02;;;;;;;22.33;15.10;;;;;;;13.84;89.64;101721.25;4934163;28;20066;-78
2023/04/10 09:01:30;;;;;;;19.63;15.43;;;;;;;13.95;88.40;101708.91;4928282;28;20086;-78
2023/04/10 09:03:57;;;;;;;18.17;13.73;;;;;;;13.98;84.96;101730.09;4938786;28;20051;-78
2023/04/10 09:06:26;;;;;;;21.25;14.07;;;;;;;14.03;85.36;101714.25;4946912;29;20047;-78
2023/04/10 09:08:53;;;;;;;19.25;14.77;;;;;;;14.06;83.26;101708.94;4950164;28;20499;-78
2023/04/10 09:11:21;;;;;;;18.70;13.88;;;;;;;14.01;81.51;101724.84;4956723;28;20131;-78
2023/04/10 09:13:48;;;;;;;19.10;15.25;;;;;;;13.95;80.72;101719.53;4955776;28;20821;-79
2023/04/10 09:16:16;;;;;;;19.50;14.23;;;;;;;13.94;82.20;101719.50;4945997;28;20062;-79
2023/04/10 09:18:50;;;;;;;17.10;13.13;;;;;;;13.95;81.94;101713.31;4928950;28;20055;-78
2023/04/10 09:21:19;;;;;;;18.63;14.02;;;;;;;13.96;81.34;101718.63;4958346;28;20051;-78
2023/04/10 09:23:48;;;;;;;17.48;13.82;;;;;;;13.98;82.25;101713.34;4981532;28;20050;-78
2023/04/10 09:26:30;;;;;;;16.23;13.32;;;;;;;14.03;79.13;101699.22;4919888;28;20051;-77
2023/04/10 09:29:06;;;;;;;16.55;12.85;;;;;;;14.02;78.32;101692.13;4940901;28;20054;-77
2023/04/10 09:31:37;;;;;;;15.40;12.40;;;;;;;14.01;79.05;101694.81;4926982;28;20526;-77
2023/04/10 09:34:21;;;;;;;16.45;11.98;;;;;;;13.95;78.78;101689.47;4897098;28;20071;-78
2023/04/10 09:36:57;;;;;;;16.75;11.82;;;;;;;13.98;81.03;101685.06;4951634;28;20051;-78
2023/04/10 09:39:42;;;;;;;16.65;12.57;;;;;;;14.08;79.19;101685.97;4967650;28;20066;-78
2023/04/10 09:42:11;;;;;;;18.55;10.95;;;;;;;14.13;79.81;101678.03;4941349;28;20055;-77
2023/04/10 09:44:40;;;;;;;16.95;12.15;;;;;;;14.22;80.22;101662.16;4939468;29;20514;-76
2023/04/10 09:47:13;;;;;;;16.45;11.90;;;;;;;14.33;78.88;101663.03;4910607;28;20047;-77
2023/04/10 09:49:55;;;;;;;16.30;11.75;;;;;;;14.38;77.36;101669.22;4890663;28;20054;-76
2023/04/10 09:52:28;;;;;;;13.60;11.07;;;;;;;14.38;76.67;101653.31;4971624;28;20058;-77
2023/04/10 09:54:59;;;;;;;13.32;10.48;;;;;;;14.38;76.97;101652.44;4950922;28;20583;-77
2023/04/10 09:57:28;;;;;;;13.93;11.73;;;;;;;14.38;76.84;101640.03;4957284;28;20047;-78
2023/04/10 09:59:58;;;;;;;13.93;11.15;;;;;;;14.40;76.39;101638.31;4934844;28;20055;-77
2023/04/10 10:02:29;;;;;;;16.47;11.40;;;;;;;14.43;76.26;101624.16;4933704;28;20066;-78
2023/04/10 10:05:00;;;;;;;14.80;11.57;;;;;;;14.46;76.82;101621.50;4911561;28;20054;-77
2023/04/10 10:07:29;;;;;;;13.98;11.10;;;;;;;14.55;76.89;101610.00;4929266;28;20052;-77
2023/04/10 10:09:57;;;;;;;12.50;9.95;;;;;;;14.60;77.35;101597.66;4955800;28;20806;-78
2023/04/10 10:12:47;;;;;;;11.82;10.55;;;;;;;14.69;77.17;101600.28;4960794;28;20055;-78
2023/04/10 10:15:37;;;;;;;13.60;10.70;;;;;;;14.77;72.88;101590.53;4918782;28;20058;-74
2023/04/10 10:18:42;;;;;;;13.98;11.20;;;;;;;14.84;73.84;101582.56;4942635;28;20043;-75
2023/04/10 10:21:12;;;;;;;14.40;10.60;;;;;;;14.91;74.98;101571.03;4912540;28;20043;-75
2023/04/10 10:23:41;;;;;;;10.98;9.45;;;;;;;14.99;75.77;101569.25;4947663;28;20039;-74
2023/04/10 10:26:09;;;;;;;16.50;11.25;;;;;;;15.08;74.84;101566.53;4960290;28;20521;-74
2023/04/10 10:28:36;;;;;;;13.95;10.13;;;;;;;15.14;72.51;101555.03;4955319;28;20051;-73
2023/04/10 10:31:05;;;;;;;13.60;10.10;;;;;;;15.14;71.29;101555.03;4935252;28;20074;-74
2023/04/10 10:33:37;;;;;;;15.10;10.38;;;;;;;15.14;70.05;101537.34;4935404;29;20517;-73
2023/04/10 10:36:05;;;;;;;12.10;8.98;;;;;;;15.16;70.29;101532.91;4890188;28;20048;-73
2023/04/10 10:38:35;;;;;;;16.23;11.25;;;;;;;15.20;70.73;101534.66;4959247;28;20049;-73
2023/04/10 10:41:23;;;;;;;17.40;10.50;;;;;;;15.27;71.46;101527.53;4929016;28;20055;-73
2023/04/10 10:44:10;;;;;;;10.43;9.32;;;;;;;15.31;68.67;101523.06;4945722;28;20306;-73
2023/04/10 10:46:46;;;;;;;12.20;10.15;;;;;;;15.35;69.16;101531.03;4961321;28;20062;-74
2023/04/10 10:49:14;;;;;;;14.20;10.55;;;;;;;15.36;70.25;101531.91;4950482;28;21708;-73
2023/04/10 10:51:43;;;;;;;13.50;10.20;;;;;;;15.34;70.66;101512.44;4896280;28;20075;-74
2023/04/10 10:54:29;;;;;;;11.77;10.13;;;;;;;15.31;68.53;101504.50;4968412;28;20050;-74
2023/04/10 10:56:56;;;;;;;11.85;9.10;;;;;;;15.34;70.46;101515.09;4952106;28;20048;-73
2023/04/10 10:59:50;;;;;;;10.35;9.30;;;;;;;15.31;64.73;101496.53;4945778;28;20054;-73
2023/04/10 11:02:18;;;;;;;11.25;10.07;;;;;;;15.31;70.78;101499.19;4940580;28;20070;-73
2023/04/10 11:04:47;;;;;;;13.32;10.13;;;;;;;15.33;70.45;101485.03;4960648;28;20501;-74
2023/04/10 11:07:15;;;;;;;11.57;9.52;;;;;;;15.35;70.65;101485.91;4897244;28;20047;-73
2023/04/10 11:09:46;;;;;;;10.93;9.40;;;;;;;15.35;71.63;101487.69;4966020;28;20106;-74
2023/04/10 11:12:15;;;;;;;11.73;9.27;;;;;;;15.32;69.22;101477.94;4954287;28;20043;-72
2023/04/10 11:14:44;;;;;;;12.40;8.85;;;;;;;15.30;70.78;101478.84;4951032;28;20058;-73
2023/04/10 11:17:11;;;;;;;9.70;8.52;;;;;;;15.29;70.16;101472.66;4930322;28;20043;-73
2023/04/10 11:19:59;;;;;;;9.95;8.52;;;;;;;15.32;67.49;101462.00;4955230;28;20055;-75
2023/04/10 11:22:27;;;;;;;11.70;9.15;;;;;;;15.37;70.75;101470.84;4907635;28;20055;-73
2023/04/10 11:25:00;;;;;;;12.82;9.20;;;;;;;15.39;70.70;101455.75;4937037;28;20054;-73
2023/04/10 11:28:01;;;;;;;10.88;8.20;;;;;;;15.39;68.01;101452.25;4940606;29;20047;-73
2023/04/10 11:30:30;;;;;;;9.85;8.40;;;;;;;15.39;70.02;101446.91;4922896;28;20067;-73
2023/04/10 11:32:59;;;;;;;10.40;7.82;;;;;;;15.39;69.65;101442.47;4955355;28;20074;-73
2023/04/10 11:35:27;;;;;;;12.02;7.75;;;;;;;15.41;69.53;101450.44;4928527;28;20051;-73